Data Viewer
| City | State | Eastern Time | Source | Temp | DewPt | RH | BP | 5 Min Precip | Wind Speed | Wind Dir | 5 Min Wind Max | 5 Min Wind Max Dir |
|---|---|---|---|---|---|---|---|---|---|---|---|---|
| New York LGA | NY | 2026-05-09 17:48 | ASOS | 57 | 54 | 88 | 29.84 | 9 | E | |||
| New York LGA | NY | 2026-05-10 09:05 | ASOS | 55 | 52 | 88 | 29.91 | 6 | SSE | |||
| New York LGA | NY | 2026-05-10 08:45 | ASOS | 54 | 52 | 94 | 29.91 | 0 | N | |||
| New York LGA | NY | 2026-05-10 08:48 | ASOS | 54 | 52 | 94 | 29.91 | 3 | ||||
| New York LGA | NY | 2026-05-10 08:50 | ASOS | 54 | 52 | 94 | 29.91 | 3 | E | |||
| New York LGA | NY | 2026-05-10 08:51 | ASOS | 54 | 52 | 93 | 29.91 | 5 | ||||
| New York LGA | NY | 2026-05-10 08:55 | ASOS | 54 | 52 | 94 | 29.91 | 6 | E | |||
| New York LGA | NY | 2026-05-10 09:00 | ASOS | 54 | 52 | 94 | 29.92 | 0 | N | |||
| New York LGA | NY | 2026-05-10 09:10 | ASOS | 55 | 52 | 88 | 29.91 | 5 | SSE | |||
| New York LGA | NY | 2026-05-10 08:35 | ASOS | 54 | 52 | 94 | 29.91 | 5 | SE | |||
| New York LGA | NY | 2026-05-10 09:15 | ASOS | 55 | 52 | 88 | 29.91 | 5 | S | |||
| New York LGA | NY | 2026-05-10 09:20 | ASOS | 55 | 52 | 88 | 29.92 | 3 | S | |||
| New York LGA | NY | 2026-05-10 09:25 | ASOS | 55 | 52 | 88 | 29.92 | 5 | SSE | |||
| New York LGA | NY | 2026-05-10 09:30 | ASOS | 55 | 54 | 94 | 29.92 | 5 | S | |||
| New York LGA | NY | 2026-05-10 09:35 | ASOS | 55 | 52 | 88 | 29.92 | 6 | S | |||
| New York LGA | NY | 2026-05-10 09:40 | ASOS | 55 | 54 | 94 | 29.92 | 5 | S | |||
| New York LGA | NY | 2026-05-10 08:40 | ASOS | 54 | 52 | 94 | 29.91 | 3 | E | |||
| New York LGA | NY | 2026-05-10 08:30 | ASOS | 54 | 52 | 94 | 29.91 | 0 | N | |||
| New York LGA | NY | 2026-05-10 09:50 | ASOS | 57 | 54 | 88 | 29.92 | 5 | S | |||
| New York LGA | NY | 2026-05-10 07:51 | ASOS | 53 | 51 | 93 | 29.89 | 5 | NE | |||
| New York LGA | NY | 2026-05-10 07:25 | ASOS | 54 | 52 | 94 | 29.89 | 8 | ENE | |||
| New York LGA | NY | 2026-05-10 07:30 | ASOS | 52 | 52 | 100 | 29.89 | 7 | ENE | |||
| New York LGA | NY | 2026-05-10 07:35 | ASOS | 54 | 52 | 94 | 29.89 | 5 | ENE | |||
| New York LGA | NY | 2026-05-10 07:40 | ASOS | 52 | 52 | 100 | 29.89 | 5 | ENE | |||
| New York LGA | NY | 2026-05-10 07:45 | ASOS | 54 | 52 | 94 | 29.89 | 0 | N | |||
| New York LGA | NY | 2026-05-10 07:50 | ASOS | 54 | 52 | 94 | 29.89 | 5 | NE | |||
| New York LGA | NY | 2026-05-10 07:55 | ASOS | 52 | 52 | 100 | 29.89 | 5 | NE | |||
| New York LGA | NY | 2026-05-10 08:25 | ASOS | 54 | 52 | 94 | 29.91 | 5 | SSE | |||
| New York LGA | NY | 2026-05-10 07:58 | ASOS | 53 | 51 | 93 | 29.89 | 5 | NE | |||
| New York LGA | NY | 2026-05-10 08:00 | ASOS | 54 | 52 | 94 | 29.89 | 6 | NNE | |||
| New York LGA | NY | 2026-05-10 08:05 | ASOS | 54 | 52 | 94 | 29.90 | 5 | NE | |||
| New York LGA | NY | 2026-05-10 08:15 | ASOS | 54 | 52 | 94 | 29.90 | 5 | NE | |||
| New York LGA | NY | 2026-05-10 08:17 | ASOS | 53 | 51 | 93 | 29.90 | 3 | ||||
| New York LGA | NY | 2026-05-10 08:20 | ASOS | 54 | 52 | 94 | 29.91 | 3 | ESE | |||
| New York LGA | NY | 2026-05-10 09:45 | ASOS | 57 | 54 | 88 | 29.92 | 5 | S | |||
| New York LGA | NY | 2026-05-10 09:51 | ASOS | 57 | 53 | 87 | 29.92 | 5 | ||||
| New York LGA | NY | 2026-05-10 07:15 | ASOS | 52 | 52 | 100 | 29.88 | 8 | NE | |||
| New York LGA | NY | 2026-05-10 11:53 | ASOS | 62 | 55 | 78 | 29.92 | 5 | SSW | |||
| New York LGA | NY | 2026-05-10 11:30 | ASOS | 61 | 54 | 77 | 29.93 | 0 | N | |||
| New York LGA | NY | 2026-05-10 11:35 | ASOS | 61 | 54 | 77 | 29.93 | 0 | N | |||
| New York LGA | NY | 2026-05-10 11:40 | ASOS | 61 | 54 | 77 | 29.93 | 3 | S | |||
| New York LGA | NY | 2026-05-10 11:45 | ASOS | 61 | 55 | 82 | 29.92 | 3 | SSE | |||
| New York LGA | NY | 2026-05-10 11:50 | ASOS | 63 | 55 | 77 | 29.92 | 3 | SSW | |||
| New York LGA | NY | 2026-05-10 11:51 | ASOS | 62 | 55 | 78 | 29.92 | 0 | N | |||
| New York LGA | NY | 2026-05-10 11:55 | ASOS | 63 | 55 | 77 | 29.92 | 3 | SW | |||
| New York LGA | NY | 2026-05-10 11:20 | ASOS | 61 | 54 | 77 | 29.93 | 7 | SSE | |||
| New York LGA | NY | 2026-05-10 12:00 | ASOS | 63 | 55 | 77 | 29.92 | 0 | N | |||
| New York LGA | NY | 2026-05-10 12:05 | ASOS | 63 | 55 | 77 | 29.92 | 0 | N | |||
| New York LGA | NY | 2026-05-10 12:10 | ASOS | 63 | 55 | 77 | 29.91 | |||||
| New York LGA | NY | 2026-05-10 12:15 | ASOS | 63 | 55 | 77 | 29.92 | 5 | SE | |||
| New York LGA | NY | 2026-05-10 12:20 | ASOS | 64 | 55 | 73 | 29.92 | 5 | S | |||
| New York LGA | NY | 2026-05-10 12:25 | ASOS | 64 | 55 | 73 | 29.92 | 7 | SSW | |||
| New York LGA | NY | 2026-05-10 11:25 | ASOS | 61 | 54 | 77 | 29.93 | 0 | N | |||
| New York LGA | NY | 2026-05-10 11:15 | ASOS | 61 | 54 | 77 | 29.93 | 3 | SSE | |||
| New York LGA | NY | 2026-05-10 09:55 | ASOS | 57 | 54 | 88 | 29.92 | 5 | S | |||
| New York LGA | NY | 2026-05-10 10:35 | ASOS | 57 | 54 | 88 | 29.93 | 6 | S | |||
| New York LGA | NY | 2026-05-10 10:00 | ASOS | 57 | 54 | 88 | 29.92 | 5 | SSW | |||
| New York LGA | NY | 2026-05-10 10:05 | ASOS | 57 | 54 | 88 | 29.92 | 6 | SW | |||
| New York LGA | NY | 2026-05-10 10:15 | ASOS | 57 | 54 | 88 | 29.92 | 7 | S | |||
| New York LGA | NY | 2026-05-10 10:20 | ASOS | 57 | 54 | 88 | 29.93 | 7 | S | |||
| New York LGA | NY | 2026-05-10 10:25 | ASOS | 57 | 54 | 88 | 29.93 | 6 | S | |||
| New York LGA | NY | 2026-05-10 10:30 | ASOS | 57 | 54 | 88 | 29.93 | 6 | S | |||
| New York LGA | NY | 2026-05-10 10:40 | ASOS | 57 | 54 | 88 | 29.93 | 8 | S | |||
| New York LGA | NY | 2026-05-10 11:10 | ASOS | 61 | 55 | 82 | 29.93 | 5 | SE | |||
| New York LGA | NY | 2026-05-10 10:45 | ASOS | 59 | 54 | 82 | 29.93 | 6 | S | |||
| New York LGA | NY | 2026-05-10 10:50 | ASOS | 59 | 54 | 82 | 29.93 | 6 | S | |||
| New York LGA | NY | 2026-05-10 10:51 | ASOS | 59 | 54 | 83 | 29.93 | 7 | S | |||
| New York LGA | NY | 2026-05-10 10:55 | ASOS | 59 | 54 | 82 | 29.93 | 5 | S | |||
| New York LGA | NY | 2026-05-10 11:00 | ASOS | 61 | 55 | 82 | 29.93 | 7 | S | |||
| New York LGA | NY | 2026-05-10 11:05 | ASOS | 61 | 54 | 77 | 29.93 | 7 | S | |||
| New York LGA | NY | 2026-05-10 07:20 | ASOS | 52 | 52 | 100 | 29.89 | 7 | ENE | |||
| New York LGA | NY | 2026-05-10 07:10 | ASOS | 52 | 52 | 100 | 29.88 | 8 | NE | |||
| New York LGA | NY | 2026-05-09 22:05 | ASOS | 55 | 54 | 94 | 29.85 | 3 | SSE | |||
| New York LGA | NY | 2026-05-10 03:51 | ASOS | 51 | 51 | 100 | 29.87 | 7 | NE | |||
| New York LGA | NY | 2026-05-10 03:25 | ASOS | 52 | 52 | 100 | 29.86 | 3 | NE | |||
| New York LGA | NY | 2026-05-10 03:30 | ASOS | 52 | 52 | 100 | 29.86 | 5 | ENE | |||
| New York LGA | NY | 2026-05-10 03:35 | ASOS | 52 | 52 | 100 | 29.86 | 6 | ENE | |||
| New York LGA | NY | 2026-05-10 03:40 | ASOS | 52 | 52 | 100 | 29.86 | 7 | ENE | |||
| New York LGA | NY | 2026-05-10 03:45 | ASOS | 52 | 52 | 100 | 29.86 | 7 | ENE | |||
| New York LGA | NY | 2026-05-10 03:50 | ASOS | 52 | 52 | 100 | 29.86 | 7 | ENE | |||
| New York LGA | NY | 2026-05-10 03:55 | ASOS | 52 | 52 | 100 | 29.87 | 7 | ENE | |||
| New York LGA | NY | 2026-05-10 03:15 | ASOS | 52 | 52 | 100 | 29.87 | 6 | NNE | |||
| New York LGA | NY | 2026-05-10 04:00 | ASOS | 52 | 52 | 100 | 29.87 | 5 | ENE | |||
| New York LGA | NY | 2026-05-10 04:05 | ASOS | 52 | 52 | 100 | 29.87 | 5 | E | |||
| New York LGA | NY | 2026-05-10 04:10 | ASOS | 52 | 52 | 100 | 29.87 | 3 | ENE | |||
| New York LGA | NY | 2026-05-10 04:15 | ASOS | 52 | 52 | 100 | 29.87 | 3 | ENE | |||
| New York LGA | NY | 2026-05-10 04:20 | ASOS | 52 | 52 | 100 | 29.87 | 5 | ENE | |||
| New York LGA | NY | 2026-05-10 04:25 | ASOS | 52 | 52 | 100 | 29.87 | 6 | E | |||
| New York LGA | NY | 2026-05-10 03:20 | ASOS | 52 | 52 | 100 | 29.86 | 5 | NE | |||
| New York LGA | NY | 2026-05-10 03:10 | ASOS | 52 | 52 | 100 | 29.87 | 5 | NNE | |||
| New York LGA | NY | 2026-05-10 04:35 | ASOS | 52 | 52 | 100 | 29.89 | 7 | N | |||
| New York LGA | NY | 2026-05-10 02:30 | ASOS | 52 | 52 | 100 | 29.85 | 5 | NE | |||
| New York LGA | NY | 2026-05-09 22:48 | ASOS | 54 | 54 | 100 | 29.85 | 3 | NE | |||
| New York LGA | NY | 2026-05-09 23:49 | ASOS | 54 | 52 | 94 | 29.86 | 5 | SE | |||
| New York LGA | NY | 2026-05-10 01:51 | ASOS | 52 | 52 | 100 | 29.85 | 3 | NE | |||
| New York LGA | NY | 2026-05-10 02:15 | ASOS | 52 | 52 | 100 | 29.85 | 5 | ESE | |||
| New York LGA | NY | 2026-05-10 02:20 | ASOS | 52 | 52 | 100 | 29.85 | 0 | N | |||
| New York LGA | NY | 2026-05-10 02:25 | ASOS | 52 | 52 | 100 | 29.85 | 3 | ENE | |||
| New York LGA | NY | 2026-05-10 02:35 | ASOS | 52 | 52 | 100 | 29.86 | 3 | NNE | |||
| New York LGA | NY | 2026-05-10 03:05 | ASOS | 52 | 52 | 100 | 29.87 | 6 | N | |||
| New York LGA | NY | 2026-05-10 02:40 | ASOS | 52 | 52 | 100 | 29.86 | 3 | NNE | |||
| New York LGA | NY | 2026-05-10 02:45 | ASOS | 52 | 52 | 100 | 29.86 | 5 | N | |||
| New York LGA | NY | 2026-05-10 02:50 | ASOS | 52 | 52 | 100 | 29.86 | 5 | N | |||
| New York LGA | NY | 2026-05-10 02:51 | ASOS | 52 | 52 | 100 | 29.86 | 5 | NNW | |||
| New York LGA | NY | 2026-05-10 02:55 | ASOS | 52 | 52 | 100 | 29.86 | 6 | N | |||
| New York LGA | NY | 2026-05-10 03:00 | ASOS | 52 | 52 | 100 | 29.86 | 7 | N | |||
| New York LGA | NY | 2026-05-10 04:30 | ASOS | 52 | 52 | 100 | 29.88 | 6 | NNE | |||
| New York LGA | NY | 2026-05-10 04:40 | ASOS | 52 | 52 | 100 | 29.89 | 5 | NNE | |||
| New York LGA | NY | 2026-05-10 07:05 | ASOS | 52 | 52 | 100 | 29.88 | 8 | ENE | |||
| New York LGA | NY | 2026-05-10 06:30 | ASOS | 52 | 52 | 100 | 29.87 | 8 | E | |||
| New York LGA | NY | 2026-05-10 06:00 | ASOS | 52 | 52 | 100 | 29.88 | 8 | ENE | |||
| New York LGA | NY | 2026-05-10 06:05 | ASOS | 52 | 52 | 100 | 29.88 | 8 | ENE | |||
| New York LGA | NY | 2026-05-10 06:10 | ASOS | 52 | 52 | 100 | 29.88 | 8 | ENE | |||
| New York LGA | NY | 2026-05-10 06:15 | ASOS | 52 | 51 | 97 | 29.88 | 8 | ENE | |||
| New York LGA | NY | 2026-05-10 06:20 | ASOS | 52 | 52 | 100 | 29.88 | 8 | ENE | |||
| New York LGA | NY | 2026-05-10 06:25 | ASOS | 52 | 52 | 100 | 29.88 | 8 | ENE | |||
| New York LGA | NY | 2026-05-10 06:35 | ASOS | 52 | 52 | 100 | 29.88 | 7 | ENE | |||
| New York LGA | NY | 2026-05-10 05:51 | ASOS | 52 | 51 | 97 | 29.88 | 8 | ENE | |||
| New York LGA | NY | 2026-05-10 06:40 | ASOS | 52 | 52 | 100 | 29.88 | 6 | NE | |||
| New York LGA | NY | 2026-05-10 06:45 | ASOS | 52 | 52 | 100 | 29.89 | 8 | NE | |||
| New York LGA | NY | 2026-05-10 06:50 | ASOS | 52 | 52 | 100 | 29.88 | 8 | ENE | |||
| New York LGA | NY | 2026-05-10 06:51 | ASOS | 52 | 51 | 97 | 29.88 | 9 | E | |||
| New York LGA | NY | 2026-05-10 06:55 | ASOS | 52 | 52 | 100 | 29.88 | 9 | E | |||
| New York LGA | NY | 2026-05-10 07:00 | ASOS | 52 | 52 | 100 | 29.87 | 8 | ENE | |||
| New York LGA | NY | 2026-05-10 05:55 | ASOS | 52 | 52 | 100 | 29.88 | 8 | ENE | |||
| New York LGA | NY | 2026-05-10 05:50 | ASOS | 52 | 52 | 100 | 29.88 | 8 | ENE | |||
| New York LGA | NY | 2026-05-10 04:45 | ASOS | 52 | 52 | 100 | 29.89 | 6 | N | |||
| New York LGA | NY | 2026-05-10 05:10 | ASOS | 52 | 52 | 100 | 29.89 | 7 | NE | |||
| New York LGA | NY | 2026-05-10 04:49 | ASOS | 52 | 52 | 100 | 29.89 | 5 | NNE | |||
| New York LGA | NY | 2026-05-10 04:50 | ASOS | 52 | 52 | 100 | 29.89 | 6 | NNE | |||
| New York LGA | NY | 2026-05-10 04:51 | ASOS | 52 | 51 | 97 | 29.89 | 6 | NNE | |||
| New York LGA | NY | 2026-05-10 04:55 | ASOS | 52 | 52 | 100 | 29.89 | 6 | NNE | |||
| New York LGA | NY | 2026-05-10 05:00 | ASOS | 52 | 52 | 100 | 29.89 | 6 | NE | |||
| New York LGA | NY | 2026-05-10 05:05 | ASOS | 52 | 52 | 100 | 29.89 | 8 | NE | |||
| New York LGA | NY | 2026-05-10 05:15 | ASOS | 52 | 52 | 100 | 29.89 | 8 | ENE | |||
| New York LGA | NY | 2026-05-10 05:45 | ASOS | 52 | 52 | 100 | 29.89 | 8 | ENE | |||
| New York LGA | NY | 2026-05-10 05:20 | ASOS | 52 | 52 | 100 | 29.90 | 7 | NE | |||
| New York LGA | NY | 2026-05-10 05:25 | ASOS | 52 | 52 | 100 | 29.89 | 8 | NE | |||
| New York LGA | NY | 2026-05-10 05:30 | ASOS | 52 | 52 | 100 | 29.89 | 8 | NE | |||
| New York LGA | NY | 2026-05-10 05:35 | ASOS | 52 | 52 | 100 | 29.89 | 8 | NE | |||
| New York LGA | NY | 2026-05-10 05:40 | ASOS | 52 | 52 | 100 | 29.89 | 8 | ENE | |||
| New York LGA | NY | 2026-05-10 05:44 | ASOS | 52 | 51 | 97 | 29.89 | 9 | ENE | |||
| New York LGA | NY | 2026-05-10 12:30 | ASOS | 64 | 55 | 73 | 29.92 | 7 | WSW |
data collection created in 0.020840883255005 (queried in 0.004467) rendered in: 0.00027203559875488

